Time;durP1;ratioP1;P1;durP2;ratioP2;P2;SDS_P1;SDS_P2;PMS_P1;PMS_P2;Temp;Humidity;BMP_temperature;BMP_pressure;BME280_temperature;BME280_humidity;BME280_pressure;Samples;Min_cycle;Max_cycle;Signal;HPM_P1;HPM_P2
2022/05/30 00:05:25;;;;;;;;;;;12.70;71.60;;;;;;4966953;28;19975;-68
2022/05/30 00:07:51;;;;;;;;;;;12.80;71.30;;;;;;4997133;28;19917;-68
2022/05/30 00:10:19;;;;;;;;;;;12.70;71.20;;;;;;5008160;28;20395;-68
2022/05/30 00:12:46;;;;;;;;;;;12.80;70.60;;;;;;5015341;28;19909;-68
2022/05/30 00:15:13;;;;;;;;;;;12.80;71.10;;;;;;5015540;28;20360;-68
2022/05/30 00:17:40;;;;;;;;;;;12.90;70.90;;;;;;5012323;28;19909;-68
2022/05/30 00:20:06;;;;;;;;;;;12.90;71.00;;;;;;5022109;28;20007;-68
2022/05/30 00:22:33;;;;;;;;;;;12.90;71.10;;;;;;5010318;28;19925;-68
2022/05/30 00:24:59;;;;;;;;;;;13.00;70.80;;;;;;5017192;28;19917;-68
2022/05/30 00:27:26;;;;;;;;;;;13.00;70.90;;;;;;5003235;28;19960;-68
2022/05/30 00:29:52;;;;;;;;;;;13.10;71.10;;;;;;5017303;28;20012;-68
2022/05/30 00:32:20;;;;;;;;;;;13.20;71.20;;;;;;5016458;28;19905;-68
2022/05/30 00:34:47;;;;;;;;;;;13.20;71.60;;;;;;5013589;28;19909;-68
2022/05/30 00:37:13;;;;;;;;;;;13.20;71.10;;;;;;5012269;28;19905;-68
2022/05/30 00:39:40;;;;;;;;;;;13.30;70.80;;;;;;4984945;28;19912;-68
2022/05/30 00:42:07;;;;;;;;;;;13.30;71.00;;;;;;5009689;28;19916;-68
2022/05/30 00:44:34;;;;;;;;;;;13.30;70.90;;;;;;5014855;28;19910;-68
2022/05/30 00:47:01;;;;;;;;;;;13.30;71.30;;;;;;4997688;28;19912;-68
2022/05/30 00:49:27;;;;;;;;;;;13.40;71.20;;;;;;5015268;28;19948;-68
2022/05/30 00:51:55;;;;;;;;;;;13.40;71.40;;;;;;5014037;28;19909;-68
2022/05/30 00:54:22;;;;;;;;;;;13.30;72.30;;;;;;5015307;28;19940;-68
2022/05/30 00:56:50;;;;;;;;;;;13.30;73.80;;;;;;5015292;28;19906;-68
2022/05/30 00:59:16;;;;;;;;;;;13.30;73.40;;;;;;5015394;28;19951;-68
2022/05/30 01:01:43;;;;;;;;;;;13.20;74.10;;;;;;5014176;28;19905;-67
2022/05/30 01:06:57;;;;;;;;;;;13.10;74.30;;;;;;5013893;28;19924;-68
2022/05/30 01:09:24;;;;;;;;;;;13.20;75.60;;;;;;5014918;28;19912;-68
2022/05/30 01:11:58;;;;;;;;;;;13.20;75.80;;;;;;5014867;28;19909;-68
2022/05/30 01:14:26;;;;;;;;;;;13.20;76.20;;;;;;5014891;28;20364;-68
2022/05/30 01:16:52;;;;;;;;;;;13.20;76.10;;;;;;5013675;28;20047;-68
2022/05/30 01:19:25;;;;;;;;;;;13.20;75.80;;;;;;5015004;28;20385;-68
2022/05/30 01:21:55;;;;;;;;;;;13.20;76.00;;;;;;5015015;28;19906;-68
2022/05/30 01:24:40;;;;;;;;;;;13.20;76.40;;;;;;5013863;28;20448;-68
2022/05/30 01:27:11;;;;;;;;;;;13.20;76.90;;;;;;5015072;28;19913;-68
2022/05/30 01:29:41;;;;;;;;;;;13.20;76.30;;;;;;5013708;28;19967;-68
2022/05/30 01:32:07;;;;;;;;;;;13.20;75.40;;;;;;5013919;28;19905;-67
2022/05/30 01:34:34;;;;;;;;;;;13.20;75.60;;;;;;5014551;28;19905;-68
2022/05/30 01:37:00;;;;;;;;;;;13.10;75.70;;;;;;5014261;28;20429;-68
2022/05/30 01:39:27;;;;;;;;;;;13.20;75.60;;;;;;5013984;28;20044;-68
2022/05/30 01:41:54;;;;;;;;;;;13.20;75.90;;;;;;5013629;28;19913;-68
2022/05/30 01:44:21;;;;;;;;;;;13.20;75.30;;;;;;5013121;28;19945;-68
2022/05/30 01:46:47;;;;;;;;;;;13.20;75.70;;;;;;5014426;28;19920;-68
2022/05/30 01:49:14;;;;;;;;;;;13.20;76.00;;;;;;5014409;28;19960;-68
2022/05/30 01:51:40;;;;;;;;;;;13.20;75.70;;;;;;5014581;28;19913;-68
2022/05/30 01:54:07;;;;;;;;;;;13.20;75.50;;;;;;5013155;28;19906;-68
2022/05/30 01:56:34;;;;;;;;;;;13.10;75.30;;;;;;5014193;28;19939;-68
2022/05/30 01:59:00;;;;;;;;;;;13.10;75.90;;;;;;5014016;28;19907;-68
2022/05/30 02:01:27;;;;;;;;;;;13.20;75.90;;;;;;5014184;28;19905;-68
2022/05/30 02:03:54;;;;;;;;;;;13.10;75.80;;;;;;5014266;28;19913;-68
2022/05/30 02:06:21;;;;;;;;;;;13.20;75.60;;;;;;5012594;28;20008;-68
2022/05/30 02:08:47;;;;;;;;;;;13.20;74.60;;;;;;5013944;28;20004;-67
2022/05/30 02:11:16;;;;;;;;;;;13.30;75.10;;;;;;5014034;28;19916;-68
2022/05/30 02:13:42;;;;;;;;;;;13.30;75.20;;;;;;5013977;28;20383;-68
2022/05/30 02:18:55;;;;;;;;;;;13.50;74.50;;;;;;5014053;28;19915;-68
2022/05/30 02:21:22;;;;;;;;;;;13.60;74.30;;;;;;5013884;28;19905;-68
2022/05/30 02:23:48;;;;;;;;;;;13.60;74.30;;;;;;5012668;28;19940;-68
2022/05/30 02:26:15;;;;;;;;;;;13.60;74.10;;;;;;5013830;28;19914;-67
2022/05/30 02:28:41;;;;;;;;;;;13.60;74.00;;;;;;5013709;28;19909;-68
2022/05/30 02:31:08;;;;;;;;;;;13.70;73.70;;;;;;5013678;28;19952;-68
2022/05/30 02:39:03;;;;;;;;;;;13.70;73.80;;;;;;5013544;28;20098;-68
2022/05/30 02:41:30;;;;;;;;;;;13.90;73.80;;;;;;5013596;28;19912;-68
2022/05/30 02:43:57;;;;;;;;;;;13.90;72.80;;;;;;5013263;28;19909;-68
2022/05/30 02:46:24;;;;;;;;;;;13.90;73.10;;;;;;5013429;28;20327;-68
2022/05/30 02:48:51;;;;;;;;;;;13.90;73.40;;;;;;5013086;28;19956;-68
2022/05/30 02:51:17;;;;;;;;;;;13.90;73.70;;;;;;5013391;28;20027;-68
2022/05/30 02:53:44;;;;;;;;;;;13.90;73.10;;;;;;5013420;28;19917;-68
2022/05/30 02:56:11;;;;;;;;;;;13.90;73.00;;;;;;5013274;28;19905;-68
2022/05/30 02:58:38;;;;;;;;;;;13.90;73.10;;;;;;5013121;28;19960;-68
2022/05/30 03:01:04;;;;;;;;;;;13.90;74.00;;;;;;5012855;28;19909;-68
2022/05/30 03:03:31;;;;;;;;;;;13.80;73.80;;;;;;5013169;28;19906;-68
2022/05/30 03:05:58;;;;;;;;;;;13.80;74.00;;;;;;5012924;28;19918;-68
2022/05/30 03:08:24;;;;;;;;;;;13.90;73.90;;;;;;5013279;28;20363;-68
2022/05/30 03:10:51;;;;;;;;;;;13.90;73.80;;;;;;5012974;28;20268;-68
2022/05/30 03:13:17;;;;;;;;;;;13.90;73.90;;;;;;5012802;28;19906;-68
2022/05/30 03:15:44;;;;;;;;;;;13.90;74.10;;;;;;5012493;28;19956;-67
2022/05/30 03:18:11;;;;;;;;;;;13.90;73.80;;;;;;5012481;28;20287;-67
2022/05/30 03:20:37;;;;;;;;;;;14.00;73.90;;;;;;5012865;28;20227;-68
2022/05/30 03:23:04;;;;;;;;;;;14.00;74.10;;;;;;5012480;28;20287;-68
2022/05/30 03:25:30;;;;;;;;;;;14.00;74.30;;;;;;5012399;28;20363;-68
2022/05/30 03:27:57;;;;;;;;;;;14.00;73.90;;;;;;5012563;28;19977;-68
2022/05/30 03:30:23;;;;;;;;;;;14.10;74.00;;;;;;5012871;28;19905;-68
2022/05/30 03:32:50;;;;;;;;;;;14.20;74.60;;;;;;5012836;28;19911;-68
2022/05/30 03:35:17;;;;;;;;;;;14.20;74.30;;;;;;4999004;28;19910;-68
2022/05/30 03:37:43;;;;;;;;;;;14.30;74.40;;;;;;5012618;28;19905;-68
2022/05/30 03:40:11;;;;;;;;;;;14.30;74.80;;;;;;5010935;28;19905;-68
2022/05/30 03:42:37;;;;;;;;;;;14.30;74.50;;;;;;5012629;28;19952;-68
2022/05/30 03:45:05;;;;;;;;;;;14.30;74.90;;;;;;5012612;28;19917;-68
2022/05/30 03:47:41;;;;;;;;;;;14.30;75.30;;;;;;5012207;28;19913;-68
2022/05/30 03:50:08;;;;;;;;;;;14.30;74.90;;;;;;5004127;28;20364;-68
2022/05/30 03:52:35;;;;;;;;;;;14.30;75.30;;;;;;5010974;28;19960;-68
2022/05/30 03:55:05;;;;;;;;;;;14.30;75.10;;;;;;5012263;28;19916;-68
2022/05/30 03:57:32;;;;;;;;;;;14.30;75.80;;;;;;5012183;28;19906;-68
2022/05/30 03:59:58;;;;;;;;;;;14.30;75.60;;;;;;5012385;28;19913;-68
2022/05/30 04:02:25;;;;;;;;;;;14.40;75.80;;;;;;5012135;28;19906;-68
2022/05/30 04:04:52;;;;;;;;;;;14.40;75.10;;;;;;5011407;28;19937;-68
2022/05/30 04:07:18;;;;;;;;;;;14.40;75.30;;;;;;5012035;28;20375;-68
2022/05/30 04:09:45;;;;;;;;;;;14.50;75.00;;;;;;5012017;28;19912;-68
2022/05/30 04:12:11;;;;;;;;;;;14.50;74.40;;;;;;5012419;28;20275;-68
2022/05/30 04:14:38;;;;;;;;;;;14.50;74.50;;;;;;5011995;28;20471;-68
2022/05/30 04:17:04;;;;;;;;;;;14.50;74.90;;;;;;5012247;28;19912;-68
2022/05/30 04:19:31;;;;;;;;;;;14.50;74.60;;;;;;5011920;28;19936;-68
2022/05/30 04:21:58;;;;;;;;;;;14.50;74.50;;;;;;5012366;28;19905;-67
2022/05/30 04:24:24;;;;;;;;;;;14.50;74.60;;;;;;5011810;28;19909;-68
2022/05/30 04:26:51;;;;;;;;;;;14.60;74.40;;;;;;5011682;28;20016;-68
2022/05/30 04:29:17;;;;;;;;;;;14.60;74.70;;;;;;5011986;28;19909;-68
2022/05/30 04:31:44;;;;;;;;;;;14.70;73.80;;;;;;5011991;28;20439;-68
2022/05/30 04:34:10;;;;;;;;;;;14.70;73.90;;;;;;5011978;28;19960;-68
2022/05/30 04:36:37;;;;;;;;;;;14.60;74.40;;;;;;5011441;28;20012;-68
2022/05/30 04:39:04;;;;;;;;;;;14.60;74.30;;;;;;5010466;28;20004;-68
2022/05/30 04:41:30;;;;;;;;;;;14.60;74.50;;;;;;5012053;28;20352;-68
2022/05/30 04:43:59;;;;;;;;;;;14.50;74.60;;;;;;5011741;28;20104;-68
2022/05/30 04:46:26;;;;;;;;;;;14.60;74.50;;;;;;4995204;28;20380;-68
2022/05/30 04:48:53;;;;;;;;;;;14.60;74.50;;;;;;5012659;28;19916;-67
2022/05/30 04:51:19;;;;;;;;;;;14.50;74.60;;;;;;5010615;28;19914;-68
2022/05/30 04:53:46;;;;;;;;;;;14.70;75.50;;;;;;5011502;28;19912;-70
2022/05/30 04:56:13;;;;;;;;;;;14.70;77.20;;;;;;5011609;28;19909;-67
2022/05/30 04:58:39;;;;;;;;;;;14.70;77.00;;;;;;5002515;28;20423;-67
2022/05/30 05:01:07;;;;;;;;;;;14.60;78.00;;;;;;5009810;28;20425;-67
2022/05/30 05:03:33;;;;;;;;;;;14.60;78.50;;;;;;5011448;28;19906;-68
2022/05/30 05:06:07;;;;;;;;;;;14.50;78.20;;;;;;5011584;28;20396;-77
2022/05/30 05:08:37;;;;;;;;;;;14.40;77.90;;;;;;5006659;28;20286;-78
2022/05/30 05:11:05;;;;;;;;;;;14.50;77.90;;;;;;5010982;28;20364;-78
2022/05/30 05:13:32;;;;;;;;;;;14.50;78.10;;;;;;5010537;28;20252;-78
2022/05/30 05:15:58;;;;;;;;;;;14.40;78.40;;;;;;5012127;28;19919;-78
2022/05/30 05:18:25;;;;;;;;;;;14.40;79.90;;;;;;5014437;28;19914;-69
2022/05/30 05:20:51;;;;;;;;;;;14.30;81.70;;;;;;5014056;28;19909;-69
2022/05/30 05:23:18;;;;;;;;;;;14.20;82.90;;;;;;5014778;28;19905;-69
2022/05/30 05:25:44;;;;;;;;;;;14.00;83.80;;;;;;5015121;28;19913;-69
2022/05/30 05:28:11;;;;;;;;;;;13.90;84.20;;;;;;5014516;28;20014;-68
2022/05/30 05:30:39;;;;;;;;;;;13.80;85.10;;;;;;5014330;28;20299;-69
2022/05/30 05:33:05;;;;;;;;;;;13.80;85.50;;;;;;5004157;28;19920;-68
2022/05/30 05:35:32;;;;;;;;;;;13.70;85.40;;;;;;5012166;28;19913;-66
2022/05/30 05:38:00;;;;;;;;;;;13.70;85.80;;;;;;5009307;28;19920;-66
2022/05/30 05:40:30;;;;;;;;;;;13.70;86.20;;;;;;5008931;28;19944;-67
2022/05/30 05:42:56;;;;;;;;;;;13.70;86.50;;;;;;5011643;28;19913;-66
2022/05/30 05:45:23;;;;;;;;;;;13.70;86.70;;;;;;5011246;28;20326;-67
2022/05/30 05:47:50;;;;;;;;;;;13.70;87.30;;;;;;5011158;28;19913;-67
2022/05/30 05:50:17;;;;;;;;;;;13.70;86.90;;;;;;5011587;28;19913;-68
2022/05/30 05:52:44;;;;;;;;;;;13.70;87.10;;;;;;5010683;28;20008;-68
2022/05/30 05:55:11;;;;;;;;;;;13.70;87.10;;;;;;5011058;28;20437;-67
2022/05/30 05:57:37;;;;;;;;;;;13.70;86.60;;;;;;5010948;28;20395;-67
2022/05/30 06:00:04;;;;;;;;;;;13.70;86.70;;;;;;5011721;28;19918;-66
2022/05/30 06:02:32;;;;;;;;;;;13.70;86.60;;;;;;5011082;28;19944;-66
2022/05/30 06:05:00;;;;;;;;;;;13.70;86.80;;;;;;5009865;28;19920;-65
2022/05/30 06:07:27;;;;;;;;;;;13.70;87.50;;;;;;5011448;28;19909;-66
2022/05/30 06:09:53;;;;;;;;;;;13.70;87.10;;;;;;5011576;28;19913;-66
2022/05/30 06:12:20;;;;;;;;;;;13.70;87.20;;;;;;5008814;28;19960;-67
2022/05/30 06:14:46;;;;;;;;;;;13.70;87.20;;;;;;5010914;28;19916;-67
2022/05/30 06:17:13;;;;;;;;;;;13.70;87.50;;;;;;5010790;28;19960;-67
2022/05/30 06:19:39;;;;;;;;;;;13.70;87.70;;;;;;5011308;28;20276;-67
2022/05/30 06:22:06;;;;;;;;;;;13.70;87.60;;;;;;5004239;28;19913;-67
2022/05/30 06:24:32;;;;;;;;;;;13.70;87.60;;;;;;5011099;28;19916;-68
2022/05/30 06:26:59;;;;;;;;;;;13.60;87.80;;;;;;5009246;28;19925;-68
2022/05/30 06:29:25;;;;;;;;;;;13.70;87.70;;;;;;5010667;28;20321;-67
2022/05/30 06:31:52;;;;;;;;;;;13.70;87.30;;;;;;5010318;28;19916;-67
2022/05/30 06:34:19;;;;;;;;;;;13.70;87.30;;;;;;5010753;28;19937;-68
2022/05/30 06:36:45;;;;;;;;;;;13.70;87.70;;;;;;5010523;28;20000;-67
2022/05/30 06:39:12;;;;;;;;;;;13.70;87.60;;;;;;5006891;28;19914;-67
2022/05/30 06:41:38;;;;;;;;;;;13.70;86.70;;;;;;5010377;28;19945;-67
2022/05/30 06:44:06;;;;;;;;;;;13.70;86.60;;;;;;5010238;28;19909;-68
2022/05/30 06:46:34;;;;;;;;;;;13.70;87.00;;;;;;5009723;28;19940;-67
2022/05/30 06:49:01;;;;;;;;;;;13.70;85.90;;;;;;5006098;28;20028;-67
2022/05/30 06:51:28;;;;;;;;;;;13.70;86.10;;;;;;5010266;28;19988;-67
2022/05/30 06:53:54;;;;;;;;;;;13.70;86.70;;;;;;4998715;28;19918;-67
2022/05/30 06:56:25;;;;;;;;;;;13.70;87.20;;;;;;5004000;28;20280;-67
2022/05/30 06:58:52;;;;;;;;;;;13.70;87.80;;;;;;4986529;28;19910;-68
2022/05/30 07:01:19;;;;;;;;;;;13.70;88.70;;;;;;4992136;28;20359;-67
2022/05/30 07:03:45;;;;;;;;;;;13.70;90.00;;;;;;5010373;28;19962;-67
2022/05/30 07:06:12;;;;;;;;;;;13.60;91.10;;;;;;5002850;28;19922;-67
2022/05/30 07:08:39;;;;;;;;;;;13.30;90.90;;;;;;4997195;28;19918;-67
2022/05/30 07:11:06;;;;;;;;;;;12.90;89.80;;;;;;5000085;28;19914;-67
2022/05/30 07:13:33;;;;;;;;;;;12.70;89.90;;;;;;5010409;28;19909;-68
2022/05/30 07:15:59;;;;;;;;;;;12.30;89.60;;;;;;5009551;28;19963;-68
2022/05/30 07:18:26;;;;;;;;;;;12.10;90.30;;;;;;5009990;28;19909;-67
2022/05/30 07:20:59;;;;;;;;;;;11.90;91.10;;;;;;5009831;28;19914;-66
2022/05/30 07:23:25;;;;;;;;;;;11.70;91.20;;;;;;5009535;28;19909;-67
2022/05/30 07:25:57;;;;;;;;;;;11.70;91.40;;;;;;5009591;28;19921;-66
2022/05/30 07:28:25;;;;;;;;;;;11.60;91.90;;;;;;5009464;28;19913;-68
2022/05/30 07:30:51;;;;;;;;;;;11.60;92.30;;;;;;5009646;28;20280;-68
2022/05/30 07:33:18;;;;;;;;;;;11.50;92.00;;;;;;5009511;28;19981;-68
2022/05/30 07:35:45;;;;;;;;;;;11.50;92.30;;;;;;5009213;28;20483;-68
2022/05/30 07:38:11;;;;;;;;;;;11.50;92.60;;;;;;5008840;28;19955;-68
2022/05/30 07:40:38;;;;;;;;;;;11.50;92.30;;;;;;5009457;28;19912;-68
2022/05/30 07:43:04;;;;;;;;;;;11.40;92.30;;;;;;5009532;28;19920;-68
2022/05/30 07:45:31;;;;;;;;;;;11.40;92.20;;;;;;5009153;28;20430;-68
2022/05/30 07:47:57;;;;;;;;;;;11.30;92.10;;;;;;5003807;28;20019;-68
2022/05/30 07:50:24;;;;;;;;;;;11.30;92.30;;;;;;5003300;28;19913;-67
2022/05/30 07:52:50;;;;;;;;;;;11.40;92.50;;;;;;4999077;28;19932;-68
2022/05/30 07:55:17;;;;;;;;;;;11.30;92.30;;;;;;5001972;28;20003;-68
2022/05/30 07:57:54;;;;;;;;;;;11.30;92.60;;;;;;5008633;28;19924;-68
2022/05/30 08:00:22;;;;;;;;;;;11.30;92.70;;;;;;5005011;28;19910;-68
2022/05/30 08:02:48;;;;;;;;;;;11.30;92.20;;;;;;5009053;28;19956;-68
2022/05/30 08:05:15;;;;;;;;;;;11.30;92.30;;;;;;5008474;28;19917;-68
2022/05/30 08:07:44;;;;;;;;;;;11.30;92.20;;;;;;5008594;28;19925;-67
2022/05/30 08:10:12;;;;;;;;;;;11.30;92.20;;;;;;5008973;28;19909;-67
2022/05/30 08:12:38;;;;;;;;;;;11.30;92.30;;;;;;5007058;28;19910;-66
2022/05/30 08:15:05;;;;;;;;;;;11.40;92.60;;;;;;5009046;28;19917;-66
2022/05/30 08:17:32;;;;;;;;;;;11.30;92.30;;;;;;5009001;28;19910;-67
2022/05/30 08:19:59;;;;;;;;;;;11.30;92.10;;;;;;5008786;28;19913;-66
2022/05/30 08:22:26;;;;;;;;;;;11.30;92.30;;;;;;5009103;28;19906;-66
2022/05/30 08:24:52;;;;;;;;;;;11.30;91.90;;;;;;5008913;28;19982;-66
2022/05/30 08:27:19;;;;;;;;;;;11.30;92.00;;;;;;5008759;28;20500;-67
2022/05/30 08:29:46;;;;;;;;;;;11.30;91.90;;;;;;5009115;28;19976;-66
2022/05/30 08:32:13;;;;;;;;;;;11.30;91.30;;;;;;5007773;28;19984;-67
2022/05/30 08:34:42;;;;;;;;;;;11.30;91.00;;;;;;5008513;28;19913;-66
2022/05/30 08:37:09;;;;;;;;;;;11.40;91.00;;;;;;4996937;28;19917;-65
2022/05/30 08:42:22;;;;;;;;;;;11.30;90.20;;;;;;5015720;28;19924;-66
2022/05/30 08:44:49;;;;;;;;;;;11.30;90.50;;;;;;4993170;28;19921;-65
2022/05/30 08:47:22;;;;;;;;;;;11.30;89.70;;;;;;5020760;28;19939;-65
2022/05/30 08:49:50;;;;;;;;;;;11.30;88.20;;;;;;5006315;28;20382;-66
2022/05/30 08:52:36;;;;;;;;;;;11.30;88.60;;;;;;5014447;28;19913;-65
2022/05/30 08:55:06;;;;;;;;;;;11.30;89.10;;;;;;5025723;28;19975;-65
2022/05/30 08:57:33;;;;;;;;;;;11.30;88.30;;;;;;5025030;28;19924;-65
2022/05/30 09:00:05;;;;;;;;;;;11.30;88.30;;;;;;5027860;28;19952;-67
2022/05/30 09:02:34;;;;;;;;;;;11.30;88.10;;;;;;4982930;28;19914;-67
2022/05/30 09:05:02;;;;;;;;;;;11.30;87.60;;;;;;5011197;28;19905;-65
2022/05/30 09:07:30;;;;;;;;;;;11.30;87.10;;;;;;5012382;28;20443;-66
2022/05/30 09:10:06;;;;;;;;;;;11.20;85.80;;;;;;5011043;28;19906;-65
2022/05/30 09:12:33;;;;;;;;;;;11.30;86.20;;;;;;5010271;28;19960;-65
2022/05/30 09:15:05;;;;;;;;;;;11.30;86.00;;;;;;5012489;28;19917;-65
2022/05/30 09:17:33;;;;;;;;;;;11.20;85.50;;;;;;5001652;28;19960;-66
2022/05/30 09:19:59;;;;;;;;;;;11.30;86.00;;;;;;5008231;28;19914;-66
2022/05/30 09:22:26;;;;;;;;;;;11.30;85.00;;;;;;5010625;28;19916;-66
2022/05/30 09:27:37;;;;;;;;;;;11.30;85.80;;;;;;5011876;28;19956;-66
2022/05/30 09:30:05;;;;;;;;;;;11.30;85.60;;;;;;5011963;28;19913;-67
2022/05/30 09:32:40;;;;;;;;;;;11.30;84.60;;;;;;5010391;28;19909;-65
2022/05/30 09:35:21;;;;;;;;;;;11.30;85.30;;;;;;5011827;28;19913;-66
2022/05/30 09:37:48;;;;;;;;;;;11.30;85.30;;;;;;5011691;28;19953;-66
2022/05/30 09:40:15;;;;;;;;;;;11.30;85.10;;;;;;4998985;28;19920;-66
2022/05/30 09:42:49;;;;;;;;;;;11.30;84.40;;;;;;5008453;28;20387;-64
2022/05/30 09:45:19;;;;;;;;;;;11.30;84.50;;;;;;5011173;28;20329;-66
2022/05/30 09:48:03;;;;;;;;;;;11.30;85.70;;;;;;5010259;28;19920;-65
2022/05/30 09:50:29;;;;;;;;;;;11.30;84.70;;;;;;5011248;28;20418;-65
2022/05/30 09:52:56;;;;;;;;;;;11.30;84.10;;;;;;5011504;28;20371;-66
2022/05/30 09:55:25;;;;;;;;;;;11.30;84.30;;;;;;5011557;28;19992;-65
2022/05/30 09:57:52;;;;;;;;;;;11.30;85.50;;;;;;5011277;28;19909;-65
2022/05/30 10:00:39;;;;;;;;;;;11.20;85.60;;;;;;5010951;28;20015;-68
2022/05/30 10:03:12;;;;;;;;;;;11.20;85.70;;;;;;5003658;28;19920;-64
2022/05/30 10:05:39;;;;;;;;;;;11.20;85.40;;;;;;4997006;28;20016;-64
2022/05/30 10:08:07;;;;;;;;;;;11.20;85.30;;;;;;5016095;28;20360;-64
2022/05/30 10:10:37;;;;;;;;;;;11.20;84.30;;;;;;5013637;28;19924;-65
2022/05/30 10:13:04;;;;;;;;;;;11.20;84.10;;;;;;5019420;28;19929;-65
2022/05/30 10:15:36;;;;;;;;;;;11.20;83.50;;;;;;5010490;28;19916;-65
2022/05/30 10:18:16;;;;;;;;;;;11.30;83.40;;;;;;5010834;28;20351;-66
2022/05/30 10:20:45;;;;;;;;;;;11.30;82.50;;;;;;5015049;28;19917;-66
2022/05/30 10:29:07;;;;;;;;;;;11.50;81.30;;;;;;5003276;28;20314;-68
2022/05/30 10:31:46;;;;;;;;;;;11.50;82.40;;;;;;4993910;28;19914;-67
2022/05/30 10:34:30;;;;;;;;;;;11.50;83.00;;;;;;5002184;28;19917;-67
2022/05/30 10:37:11;;;;;;;;;;;11.40;82.50;;;;;;4996341;28;19984;-67
2022/05/30 10:39:56;;;;;;;;;;;11.50;82.60;;;;;;4984184;28;19952;-67
2022/05/30 10:42:36;;;;;;;;;;;11.40;83.00;;;;;;5009261;28;19913;-67
2022/05/30 10:45:05;;;;;;;;;;;11.40;83.20;;;;;;5016707;28;19917;-67
2022/05/30 10:47:32;;;;;;;;;;;11.40;82.60;;;;;;5008517;28;19979;-67
2022/05/30 10:50:04;;;;;;;;;;;11.40;82.70;;;;;;5028290;28;19959;-67
2022/05/30 10:52:42;;;;;;;;;;;11.40;83.60;;;;;;5017471;28;19917;-67
2022/05/30 10:55:11;;;;;;;;;;;11.40;83.20;;;;;;5008068;28;19908;-68
2022/05/30 10:57:45;;;;;;;;;;;11.30;82.70;;;;;;5004807;28;20272;-68
2022/05/30 11:00:16;;;;;;;;;;;11.30;83.20;;;;;;4982074;28;19914;-68
2022/05/30 11:02:54;;;;;;;;;;;11.30;83.30;;;;;;4991979;28;19912;-68
2022/05/30 11:05:39;;;;;;;;;;;11.30;82.70;;;;;;4979575;28;19917;-67
2022/05/30 11:08:06;;;;;;;;;;;11.40;83.40;;;;;;5015274;28;20382;-66
2022/05/30 11:11:04;;;;;;;;;;;11.30;83.60;;;;;;5017505;28;19913;-66
2022/05/30 11:13:33;;;;;;;;;;;11.30;84.00;;;;;;4962404;28;19961;-66
2022/05/30 11:16:08;;;;;;;;;;;11.30;83.40;;;;;;4999666;28;19909;-67
2022/05/30 11:18:52;;;;;;;;;;;11.20;83.60;;;;;;5019752;28;20010;-68
2022/05/30 11:21:20;;;;;;;;;;;11.20;84.00;;;;;;4999926;28;20031;-68
2022/05/30 11:23:47;;;;;;;;;;;11.20;84.40;;;;;;5012739;28;19932;-66
2022/05/30 11:26:13;;;;;;;;;;;11.20;84.10;;;;;;5000124;28;20439;-68
2022/05/30 11:28:40;;;;;;;;;;;11.20;84.40;;;;;;5003961;28;19933;-69
2022/05/30 11:31:09;;;;;;;;;;;11.20;84.30;;;;;;5001385;28;19909;-68
2022/05/30 11:33:52;;;;;;;;;;;11.10;83.40;;;;;;5007766;28;19914;-68
2022/05/30 11:38:53;;;;;;;;;;;11.20;84.40;;;;;;4988954;28;19922;-66
2022/05/30 11:41:23;;;;;;;;;;;11.20;84.10;;;;;;5000285;28;20687;-68
2022/05/30 11:44:08;;;;;;;;;;;11.20;84.50;;;;;;5010383;28;19910;-66
2022/05/30 11:46:38;;;;;;;;;;;11.10;84.10;;;;;;5009674;28;19988;-68
2022/05/30 11:49:08;;;;;;;;;;;11.10;83.40;;;;;;4987141;28;19920;-68
2022/05/30 11:51:43;;;;;;;;;;;11.20;84.00;;;;;;4990574;28;20395;-68
2022/05/30 11:54:14;;;;;;;;;;;11.20;84.20;;;;;;5009762;28;19906;-69
2022/05/30 11:56:40;;;;;;;;;;;11.20;83.40;;;;;;4982818;28;20008;-67
2022/05/30 11:59:16;;;;;;;;;;;11.20;83.30;;;;;;5009893;28;19956;-69
2022/05/30 12:01:42;;;;;;;;;;;11.20;82.60;;;;;;4992368;28;20017;-69
2022/05/30 12:04:28;;;;;;;;;;;11.30;82.10;;;;;;5009778;28;19992;-68
2022/05/30 12:07:13;;;;;;;;;;;11.30;82.30;;;;;;5009843;28;19914;-68
2022/05/30 12:09:52;;;;;;;;;;;11.40;81.00;;;;;;5009986;28;19917;-68
2022/05/30 12:12:33;;;;;;;;;;;11.40;81.10;;;;;;4988025;28;19978;-68
2022/05/30 12:15:09;;;;;;;;;;;11.50;82.40;;;;;;4992406;28;19914;-68
2022/05/30 12:23:49;;;;;;;;;;;11.60;80.50;;;;;;4994698;28;19915;-68
2022/05/30 12:26:16;;;;;;;;;;;11.60;80.30;;;;;;5012013;28;19917;-68
2022/05/30 12:28:43;;;;;;;;;;;11.60;80.20;;;;;;5006284;28;19949;-68
2022/05/30 12:31:09;;;;;;;;;;;11.60;79.90;;;;;;4992184;28;19909;-68
2022/05/30 12:33:45;;;;;;;;;;;11.60;79.80;;;;;;4998685;28;19917;-69
2022/05/30 12:36:13;;;;;;;;;;;11.60;79.40;;;;;;5013509;28;19917;-69
2022/05/30 12:38:49;;;;;;;;;;;11.60;80.20;;;;;;5013085;28;19917;-68
2022/05/30 12:41:36;;;;;;;;;;;11.70;80.80;;;;;;5013462;28;19960;-68
2022/05/30 12:44:02;;;;;;;;;;;11.70;80.40;;;;;;5002686;28;19910;-69
2022/05/30 12:46:30;;;;;;;;;;;11.70;80.90;;;;;;5012773;28;20359;-68
2022/05/30 12:48:58;;;;;;;;;;;11.70;79.30;;;;;;4978892;28;19993;-68
2022/05/30 12:51:29;;;;;;;;;;;11.70;79.40;;;;;;5000960;28;19971;-68
2022/05/30 12:53:58;;;;;;;;;;;11.70;79.40;;;;;;4998383;28;19906;-68
2022/05/30 12:56:37;;;;;;;;;;;11.70;79.50;;;;;;5015549;28;19912;-68
2022/05/30 12:59:04;;;;;;;;;;;11.70;80.10;;;;;;5015285;28;20015;-68
2022/05/30 13:01:45;;;;;;;;;;;11.70;79.60;;;;;;5015462;28;20267;-68
2022/05/30 13:04:14;;;;;;;;;;;11.70;79.10;;;;;;5015288;28;19913;-69
2022/05/30 13:06:45;;;;;;;;;;;11.70;80.20;;;;;;4998990;28;20410;-68
2022/05/30 13:09:34;;;;;;;;;;;11.70;80.00;;;;;;4988627;28;19925;-69
2022/05/30 13:12:19;;;;;;;;;;;11.70;79.70;;;;;;5004938;28;20013;-69
2022/05/30 13:14:52;;;;;;;;;;;11.60;78.40;;;;;;5015100;28;20000;-68
2022/05/30 13:17:24;;;;;;;;;;;11.60;78.60;;;;;;5014919;28;20014;-68
2022/05/30 13:20:11;;;;;;;;;;;11.60;79.30;;;;;;5009373;28;19909;-68
2022/05/30 13:22:48;;;;;;;;;;;11.70;78.10;;;;;;5014629;28;20007;-69
2022/05/30 13:25:15;;;;;;;;;;;11.70;78.90;;;;;;4997453;28;21904;-69
2022/05/30 13:27:44;;;;;;;;;;;11.70;80.00;;;;;;4987823;28;19914;-69
2022/05/30 13:30:13;;;;;;;;;;;11.70;78.50;;;;;;4970349;28;19905;-69
2022/05/30 13:32:40;;;;;;;;;;;11.70;79.90;;;;;;5015120;28;19909;-69
2022/05/30 13:35:08;;;;;;;;;;;11.70;78.80;;;;;;5013517;28;20265;-69
2022/05/30 13:37:35;;;;;;;;;;;11.70;79.30;;;;;;5012408;28;20011;-69
2022/05/30 13:40:06;;;;;;;;;;;11.70;76.00;;;;;;4994259;28;19922;-69
2022/05/30 13:42:33;;;;;;;;;;;11.80;77.80;;;;;;5014364;28;19962;-69
2022/05/30 13:45:01;;;;;;;;;;;11.70;77.10;;;;;;5013185;28;19906;-69
2022/05/30 13:47:28;;;;;;;;;;;11.70;76.90;;;;;;4987548;28;19949;-68
2022/05/30 13:49:55;;;;;;;;;;;11.70;76.50;;;;;;5014809;28;19905;-68
2022/05/30 13:52:25;;;;;;;;;;;11.70;77.80;;;;;;5013579;28;20000;-68
2022/05/30 13:54:56;;;;;;;;;;;11.70;79.20;;;;;;5013509;28;19909;-69
2022/05/30 13:57:22;;;;;;;;;;;11.70;79.00;;;;;;4997173;28;19932;-69
2022/05/30 13:59:52;;;;;;;;;;;11.70;78.70;;;;;;5014668;28;20331;-68
2022/05/30 14:02:34;;;;;;;;;;;11.70;79.30;;;;;;5004062;28;19914;-69
2022/05/30 14:05:08;;;;;;;;;;;11.70;79.40;;;;;;5013909;28;19905;-69
2022/05/30 14:07:46;;;;;;;;;;;11.70;78.70;;;;;;5014026;28;19916;-69
2022/05/30 14:10:15;;;;;;;;;;;11.70;78.10;;;;;;5014138;28;20372;-69
2022/05/30 14:12:42;;;;;;;;;;;11.70;76.80;;;;;;4998863;28;19909;-69
2022/05/30 14:15:28;;;;;;;;;;;11.70;77.20;;;;;;4996869;28;19906;-69
2022/05/30 14:17:54;;;;;;;;;;;11.70;77.30;;;;;;5012892;28;19917;-69
2022/05/30 14:20:24;;;;;;;;;;;11.70;77.70;;;;;;5003292;28;20316;-69
2022/05/30 14:23:09;;;;;;;;;;;11.70;77.40;;;;;;5013772;28;19912;-68
2022/05/30 14:25:46;;;;;;;;;;;11.70;78.40;;;;;;5012865;28;20368;-68
2022/05/30 14:28:27;;;;;;;;;;;11.70;77.80;;;;;;5012782;28;19924;-69
2022/05/30 14:30:55;;;;;;;;;;;11.70;75.50;;;;;;5006025;28;19928;-69
2022/05/30 14:33:25;;;;;;;;;;;11.70;77.40;;;;;;5010947;28;19906;-68
2022/05/30 14:35:52;;;;;;;;;;;11.70;78.60;;;;;;5013894;28;19917;-69
2022/05/30 14:38:26;;;;;;;;;;;11.70;76.80;;;;;;5012411;28;19975;-69
2022/05/30 14:40:54;;;;;;;;;;;11.70;77.50;;;;;;4985754;28;20280;-69
2022/05/30 14:43:21;;;;;;;;;;;11.70;77.50;;;;;;5000116;28;19942;-69
2022/05/30 14:45:56;;;;;;;;;;;11.70;77.40;;;;;;5027380;28;19960;-69
2022/05/30 14:48:26;;;;;;;;;;;11.70;76.40;;;;;;4991186;28;20423;-69
2022/05/30 14:50:57;;;;;;;;;;;11.70;76.30;;;;;;5012364;28;19968;-69
2022/05/30 14:53:24;;;;;;;;;;;11.70;76.70;;;;;;5012296;28;19911;-69
2022/05/30 14:56:12;;;;;;;;;;;11.70;77.60;;;;;;4997925;28;19916;-69
2022/05/30 14:58:58;;;;;;;;;;;11.70;76.50;;;;;;5013325;28;19910;-69
2022/05/30 15:01:25;;;;;;;;;;;11.70;75.90;;;;;;5011996;28;20044;-69
2022/05/30 15:04:10;;;;;;;;;;;11.70;76.50;;;;;;5007018;28;20363;-68